sensor_id;sensor_type;location;lat;lon;timestamp;P1;durP1;ratioP1;P2;durP2;ratioP2
16832;SDS011;8533;48.426;10.868;2023-08-12T00:00:05;7.37;;;4.73;;
16832;SDS011;8533;48.426;10.868;2023-08-12T00:02:39;5.43;;;4.40;;
16832;SDS011;8533;48.426;10.868;2023-08-12T00:05:06;6.33;;;4.30;;
16832;SDS011;8533;48.426;10.868;2023-08-12T00:07:32;6.37;;;4.77;;
16832;SDS011;8533;48.426;10.868;2023-08-12T00:09:58;5.53;;;4.57;;
16832;SDS011;8533;48.426;10.868;2023-08-12T00:12:24;6.13;;;4.70;;
16832;SDS011;8533;48.426;10.868;2023-08-12T00:14:50;6.27;;;4.40;;
16832;SDS011;8533;48.426;10.868;2023-08-12T00:17:16;7.77;;;5.47;;
16832;SDS011;8533;48.426;10.868;2023-08-12T00:19:41;8.23;;;5.03;;
16832;SDS011;8533;48.426;10.868;2023-08-12T00:22:07;6.67;;;4.97;;
16832;SDS011;8533;48.426;10.868;2023-08-12T00:24:32;7.23;;;5.00;;
16832;SDS011;8533;48.426;10.868;2023-08-12T00:26:57;9.23;;;5.13;;
16832;SDS011;8533;48.426;10.868;2023-08-12T00:29:23;5.93;;;4.60;;
16832;SDS011;8533;48.426;10.868;2023-08-12T00:31:49;5.43;;;4.40;;
16832;SDS011;8533;48.426;10.868;2023-08-12T00:34:14;6.60;;;4.47;;
16832;SDS011;8533;48.426;10.868;2023-08-12T00:36:39;5.53;;;4.27;;
16832;SDS011;8533;48.426;10.868;2023-08-12T00:39:05;5.43;;;4.37;;
16832;SDS011;8533;48.426;10.868;2023-08-12T00:41:31;6.73;;;4.40;;
16832;SDS011;8533;48.426;10.868;2023-08-12T00:43:56;8.23;;;4.90;;
16832;SDS011;8533;48.426;10.868;2023-08-12T00:46:21;7.90;;;4.70;;
16832;SDS011;8533;48.426;10.868;2023-08-12T00:48:47;8.93;;;5.20;;
16832;SDS011;8533;48.426;10.868;2023-08-12T00:51:14;8.07;;;4.63;;
16832;SDS011;8533;48.426;10.868;2023-08-12T00:53:41;6.50;;;4.67;;
16832;SDS011;8533;48.426;10.868;2023-08-12T00:56:07;7.77;;;4.73;;
16832;SDS011;8533;48.426;10.868;2023-08-12T00:58:32;6.77;;;4.83;;
16832;SDS011;8533;48.426;10.868;2023-08-12T01:00:57;7.43;;;4.63;;
16832;SDS011;8533;48.426;10.868;2023-08-12T01:03:23;8.10;;;4.80;;
16832;SDS011;8533;48.426;10.868;2023-08-12T01:05:48;6.73;;;4.93;;
16832;SDS011;8533;48.426;10.868;2023-08-12T01:08:14;6.73;;;4.60;;
16832;SDS011;8533;48.426;10.868;2023-08-12T01:10:42;7.47;;;5.10;;
16832;SDS011;8533;48.426;10.868;2023-08-12T01:16:06;5.23;;;4.40;;
16832;SDS011;8533;48.426;10.868;2023-08-12T01:18:34;6.67;;;4.77;;
16832;SDS011;8533;48.426;10.868;2023-08-12T01:21:00;6.23;;;4.47;;
16832;SDS011;8533;48.426;10.868;2023-08-12T01:23:28;6.37;;;4.43;;
16832;SDS011;8533;48.426;10.868;2023-08-12T01:25:54;6.37;;;4.97;;
16832;SDS011;8533;48.426;10.868;2023-08-12T01:28:19;5.67;;;4.40;;
16832;SDS011;8533;48.426;10.868;2023-08-12T01:30:52;6.30;;;4.67;;
16832;SDS011;8533;48.426;10.868;2023-08-12T01:33:31;8.57;;;4.80;;
16832;SDS011;8533;48.426;10.868;2023-08-12T01:36:09;6.27;;;4.17;;
16832;SDS011;8533;48.426;10.868;2023-08-12T01:38:40;7.30;;;4.70;;
16832;SDS011;8533;48.426;10.868;2023-08-12T01:41:07;7.17;;;5.20;;
16832;SDS011;8533;48.426;10.868;2023-08-12T01:43:35;6.67;;;4.90;;
16832;SDS011;8533;48.426;10.868;2023-08-12T01:46:01;11.90;;;5.47;;
16832;SDS011;8533;48.426;10.868;2023-08-12T01:48:26;8.07;;;5.13;;
16832;SDS011;8533;48.426;10.868;2023-08-12T01:50:51;7.93;;;4.73;;
16832;SDS011;8533;48.426;10.868;2023-08-12T01:53:17;9.30;;;4.87;;
16832;SDS011;8533;48.426;10.868;2023-08-12T01:55:43;6.70;;;4.73;;
16832;SDS011;8533;48.426;10.868;2023-08-12T01:58:09;8.50;;;4.90;;
16832;SDS011;8533;48.426;10.868;2023-08-12T02:00:34;6.17;;;4.40;;
16832;SDS011;8533;48.426;10.868;2023-08-12T02:02:59;10.57;;;4.97;;
16832;SDS011;8533;48.426;10.868;2023-08-12T02:05:25;7.40;;;5.23;;
16832;SDS011;8533;48.426;10.868;2023-08-12T02:07:50;6.77;;;5.10;;
16832;SDS011;8533;48.426;10.868;2023-08-12T02:10:16;6.07;;;4.53;;
16832;SDS011;8533;48.426;10.868;2023-08-12T02:12:41;5.80;;;4.53;;
16832;SDS011;8533;48.426;10.868;2023-08-12T02:15:06;7.23;;;5.00;;
16832;SDS011;8533;48.426;10.868;2023-08-12T02:17:32;6.47;;;4.83;;
16832;SDS011;8533;48.426;10.868;2023-08-12T02:19:57;6.30;;;5.13;;
16832;SDS011;8533;48.426;10.868;2023-08-12T02:22:22;7.50;;;4.73;;
16832;SDS011;8533;48.426;10.868;2023-08-12T02:24:48;8.47;;;5.10;;
16832;SDS011;8533;48.426;10.868;2023-08-12T02:27:13;6.87;;;4.83;;
16832;SDS011;8533;48.426;10.868;2023-08-12T02:29:38;6.57;;;5.17;;
16832;SDS011;8533;48.426;10.868;2023-08-12T02:32:04;6.07;;;4.77;;
16832;SDS011;8533;48.426;10.868;2023-08-12T02:34:29;7.77;;;5.03;;
16832;SDS011;8533;48.426;10.868;2023-08-12T02:36:55;10.27;;;5.00;;
16832;SDS011;8533;48.426;10.868;2023-08-12T02:39:20;9.73;;;5.10;;
16832;SDS011;8533;48.426;10.868;2023-08-12T02:41:45;8.43;;;4.80;;
16832;SDS011;8533;48.426;10.868;2023-08-12T02:44:11;7.13;;;5.23;;
16832;SDS011;8533;48.426;10.868;2023-08-12T02:46:36;5.83;;;4.60;;
16832;SDS011;8533;48.426;10.868;2023-08-12T02:49:01;6.80;;;5.23;;
16832;SDS011;8533;48.426;10.868;2023-08-12T02:51:26;7.00;;;5.27;;
16832;SDS011;8533;48.426;10.868;2023-08-12T02:53:52;7.97;;;4.90;;
16832;SDS011;8533;48.426;10.868;2023-08-12T02:56:17;6.80;;;4.90;;
16832;SDS011;8533;48.426;10.868;2023-08-12T02:58:42;5.53;;;4.77;;
16832;SDS011;8533;48.426;10.868;2023-08-12T03:01:08;7.73;;;5.13;;
16832;SDS011;8533;48.426;10.868;2023-08-12T03:03:33;7.07;;;4.70;;
16832;SDS011;8533;48.426;10.868;2023-08-12T03:05:59;8.00;;;5.60;;
16832;SDS011;8533;48.426;10.868;2023-08-12T03:08:24;7.13;;;5.40;;
16832;SDS011;8533;48.426;10.868;2023-08-12T03:10:49;7.90;;;4.80;;
16832;SDS011;8533;48.426;10.868;2023-08-12T03:13:15;6.87;;;5.00;;
16832;SDS011;8533;48.426;10.868;2023-08-12T03:15:40;7.57;;;5.23;;
16832;SDS011;8533;48.426;10.868;2023-08-12T03:18:07;6.73;;;5.33;;
16832;SDS011;8533;48.426;10.868;2023-08-12T03:20:32;5.87;;;4.73;;
16832;SDS011;8533;48.426;10.868;2023-08-12T03:22:58;5.70;;;4.47;;
16832;SDS011;8533;48.426;10.868;2023-08-12T03:25:23;6.03;;;4.90;;
16832;SDS011;8533;48.426;10.868;2023-08-12T03:27:48;6.07;;;4.70;;
16832;SDS011;8533;48.426;10.868;2023-08-12T03:30:14;6.23;;;4.70;;
16832;SDS011;8533;48.426;10.868;2023-08-12T03:32:39;8.03;;;4.97;;
16832;SDS011;8533;48.426;10.868;2023-08-12T03:35:04;6.90;;;5.20;;
16832;SDS011;8533;48.426;10.868;2023-08-12T03:37:30;7.00;;;5.60;;
16832;SDS011;8533;48.426;10.868;2023-08-12T03:39:55;5.90;;;4.73;;
16832;SDS011;8533;48.426;10.868;2023-08-12T03:42:20;6.50;;;5.03;;
16832;SDS011;8533;48.426;10.868;2023-08-12T03:44:46;9.80;;;4.70;;
16832;SDS011;8533;48.426;10.868;2023-08-12T03:47:11;8.10;;;4.90;;
16832;SDS011;8533;48.426;10.868;2023-08-12T03:49:37;6.20;;;5.43;;
16832;SDS011;8533;48.426;10.868;2023-08-12T03:52:03;9.13;;;6.07;;
16832;SDS011;8533;48.426;10.868;2023-08-12T03:54:29;7.87;;;4.90;;
16832;SDS011;8533;48.426;10.868;2023-08-12T03:56:54;8.50;;;5.00;;
16832;SDS011;8533;48.426;10.868;2023-08-12T03:59:19;8.63;;;5.10;;
16832;SDS011;8533;48.426;10.868;2023-08-12T04:01:45;9.63;;;5.03;;
16832;SDS011;8533;48.426;10.868;2023-08-12T04:04:10;9.27;;;5.50;;
16832;SDS011;8533;48.426;10.868;2023-08-12T04:06:36;6.17;;;5.13;;
16832;SDS011;8533;48.426;10.868;2023-08-12T04:09:02;9.40;;;5.00;;
16832;SDS011;8533;48.426;10.868;2023-08-12T04:11:28;6.27;;;4.93;;
16832;SDS011;8533;48.426;10.868;2023-08-12T04:13:53;8.77;;;5.50;;
16832;SDS011;8533;48.426;10.868;2023-08-12T04:16:18;12.10;;;5.37;;
16832;SDS011;8533;48.426;10.868;2023-08-12T04:18:43;5.90;;;4.87;;
16832;SDS011;8533;48.426;10.868;2023-08-12T04:21:09;6.93;;;5.27;;
16832;SDS011;8533;48.426;10.868;2023-08-12T04:23:34;8.73;;;5.60;;
16832;SDS011;8533;48.426;10.868;2023-08-12T04:25:59;8.07;;;5.50;;
16832;SDS011;8533;48.426;10.868;2023-08-12T04:28:25;8.00;;;5.70;;
16832;SDS011;8533;48.426;10.868;2023-08-12T04:30:50;8.03;;;6.13;;
16832;SDS011;8533;48.426;10.868;2023-08-12T04:33:17;7.17;;;5.40;;
16832;SDS011;8533;48.426;10.868;2023-08-12T04:35:44;8.70;;;5.80;;
16832;SDS011;8533;48.426;10.868;2023-08-12T04:38:10;8.93;;;5.73;;
16832;SDS011;8533;48.426;10.868;2023-08-12T04:40:37;9.90;;;5.37;;
16832;SDS011;8533;48.426;10.868;2023-08-12T04:43:04;6.97;;;5.30;;
16832;SDS011;8533;48.426;10.868;2023-08-12T04:45:29;7.63;;;5.47;;
16832;SDS011;8533;48.426;10.868;2023-08-12T04:47:57;6.83;;;5.27;;
16832;SDS011;8533;48.426;10.868;2023-08-12T04:50:23;6.57;;;5.07;;
16832;SDS011;8533;48.426;10.868;2023-08-12T04:52:48;11.37;;;5.40;;
16832;SDS011;8533;48.426;10.868;2023-08-12T04:55:13;8.80;;;5.73;;
16832;SDS011;8533;48.426;10.868;2023-08-12T04:57:39;8.33;;;5.43;;
16832;SDS011;8533;48.426;10.868;2023-08-12T05:00:04;8.87;;;5.83;;
16832;SDS011;8533;48.426;10.868;2023-08-12T05:02:33;10.90;;;6.03;;
16832;SDS011;8533;48.426;10.868;2023-08-12T05:04:59;10.70;;;6.07;;
16832;SDS011;8533;48.426;10.868;2023-08-12T05:07:24;10.33;;;6.13;;
16832;SDS011;8533;48.426;10.868;2023-08-12T05:09:49;8.00;;;5.67;;
16832;SDS011;8533;48.426;10.868;2023-08-12T05:12:15;8.47;;;5.73;;
16832;SDS011;8533;48.426;10.868;2023-08-12T05:14:40;8.80;;;6.07;;
16832;SDS011;8533;48.426;10.868;2023-08-12T05:17:05;7.33;;;5.93;;
16832;SDS011;8533;48.426;10.868;2023-08-12T05:19:31;7.87;;;5.70;;
16832;SDS011;8533;48.426;10.868;2023-08-12T05:21:57;7.90;;;5.73;;
16832;SDS011;8533;48.426;10.868;2023-08-12T05:24:22;10.70;;;5.67;;
16832;SDS011;8533;48.426;10.868;2023-08-12T05:26:47;7.03;;;5.73;;
16832;SDS011;8533;48.426;10.868;2023-08-12T05:29:13;7.37;;;5.37;;
16832;SDS011;8533;48.426;10.868;2023-08-12T05:31:38;6.17;;;4.90;;
16832;SDS011;8533;48.426;10.868;2023-08-12T05:34:03;7.93;;;5.77;;
16832;SDS011;8533;48.426;10.868;2023-08-12T05:36:29;8.83;;;5.47;;
16832;SDS011;8533;48.426;10.868;2023-08-12T05:38:54;7.50;;;5.40;;
16832;SDS011;8533;48.426;10.868;2023-08-12T05:41:20;8.97;;;6.03;;
16832;SDS011;8533;48.426;10.868;2023-08-12T05:43:45;9.37;;;5.37;;
16832;SDS011;8533;48.426;10.868;2023-08-12T05:46:11;7.00;;;5.60;;
16832;SDS011;8533;48.426;10.868;2023-08-12T05:48:36;10.53;;;5.40;;
16832;SDS011;8533;48.426;10.868;2023-08-12T05:51:01;9.13;;;5.80;;
16832;SDS011;8533;48.426;10.868;2023-08-12T05:53:27;8.73;;;5.97;;
16832;SDS011;8533;48.426;10.868;2023-08-12T05:55:52;6.30;;;5.20;;
16832;SDS011;8533;48.426;10.868;2023-08-12T05:58:17;5.70;;;5.00;;
16832;SDS011;8533;48.426;10.868;2023-08-12T06:00:42;10.87;;;5.87;;
16832;SDS011;8533;48.426;10.868;2023-08-12T06:03:10;9.50;;;5.67;;
16832;SDS011;8533;48.426;10.868;2023-08-12T06:05:37;8.23;;;5.73;;
16832;SDS011;8533;48.426;10.868;2023-08-12T06:08:02;10.30;;;5.63;;
16832;SDS011;8533;48.426;10.868;2023-08-12T06:10:27;10.60;;;5.77;;
16832;SDS011;8533;48.426;10.868;2023-08-12T06:12:53;9.43;;;6.47;;
16832;SDS011;8533;48.426;10.868;2023-08-12T06:15:18;6.50;;;5.77;;
16832;SDS011;8533;48.426;10.868;2023-08-12T06:17:43;7.30;;;5.50;;
16832;SDS011;8533;48.426;10.868;2023-08-12T06:20:09;10.77;;;5.97;;
16832;SDS011;8533;48.426;10.868;2023-08-12T06:22:34;8.07;;;5.60;;
16832;SDS011;8533;48.426;10.868;2023-08-12T06:24:59;6.20;;;5.47;;
16832;SDS011;8533;48.426;10.868;2023-08-12T06:27:25;7.87;;;5.33;;
16832;SDS011;8533;48.426;10.868;2023-08-12T06:29:51;7.60;;;6.17;;
16832;SDS011;8533;48.426;10.868;2023-08-12T06:32:16;7.17;;;5.30;;
16832;SDS011;8533;48.426;10.868;2023-08-12T06:34:41;6.37;;;5.27;;
16832;SDS011;8533;48.426;10.868;2023-08-12T06:37:07;6.90;;;5.00;;
16832;SDS011;8533;48.426;10.868;2023-08-12T06:39:32;7.20;;;5.73;;
16832;SDS011;8533;48.426;10.868;2023-08-12T06:41:57;7.10;;;5.03;;
16832;SDS011;8533;48.426;10.868;2023-08-12T06:44:24;6.87;;;5.53;;
16832;SDS011;8533;48.426;10.868;2023-08-12T06:46:49;7.47;;;5.60;;
16832;SDS011;8533;48.426;10.868;2023-08-12T06:49:15;7.10;;;5.47;;
16832;SDS011;8533;48.426;10.868;2023-08-12T06:51:40;7.30;;;5.47;;
16832;SDS011;8533;48.426;10.868;2023-08-12T06:54:06;7.70;;;4.87;;
16832;SDS011;8533;48.426;10.868;2023-08-12T06:56:31;7.10;;;5.57;;
16832;SDS011;8533;48.426;10.868;2023-08-12T06:58:56;8.57;;;5.43;;
16832;SDS011;8533;48.426;10.868;2023-08-12T07:01:22;6.70;;;4.73;;
16832;SDS011;8533;48.426;10.868;2023-08-12T07:03:47;7.73;;;5.40;;
16832;SDS011;8533;48.426;10.868;2023-08-12T07:06:13;9.00;;;5.23;;
16832;SDS011;8533;48.426;10.868;2023-08-12T07:08:38;5.60;;;4.60;;
16832;SDS011;8533;48.426;10.868;2023-08-12T07:11:03;6.20;;;5.07;;
16832;SDS011;8533;48.426;10.868;2023-08-12T07:13:29;5.53;;;4.90;;
16832;SDS011;8533;48.426;10.868;2023-08-12T07:15:55;7.57;;;5.70;;
16832;SDS011;8533;48.426;10.868;2023-08-12T07:18:20;9.30;;;4.87;;
16832;SDS011;8533;48.426;10.868;2023-08-12T07:20:47;6.07;;;4.33;;
16832;SDS011;8533;48.426;10.868;2023-08-12T07:23:13;6.63;;;5.10;;
16832;SDS011;8533;48.426;10.868;2023-08-12T07:25:38;6.23;;;4.97;;
16832;SDS011;8533;48.426;10.868;2023-08-12T07:28:04;5.60;;;5.00;;
16832;SDS011;8533;48.426;10.868;2023-08-12T07:30:29;8.90;;;4.90;;
16832;SDS011;8533;48.426;10.868;2023-08-12T07:32:55;6.17;;;4.73;;
16832;SDS011;8533;48.426;10.868;2023-08-12T07:35:20;5.97;;;4.40;;
16832;SDS011;8533;48.426;10.868;2023-08-12T07:37:45;7.03;;;4.77;;
16832;SDS011;8533;48.426;10.868;2023-08-12T07:40:10;7.47;;;4.80;;
16832;SDS011;8533;48.426;10.868;2023-08-12T07:42:37;7.93;;;5.00;;
16832;SDS011;8533;48.426;10.868;2023-08-12T07:45:02;5.13;;;4.33;;
16832;SDS011;8533;48.426;10.868;2023-08-12T07:47:28;7.67;;;4.77;;
16832;SDS011;8533;48.426;10.868;2023-08-12T07:49:53;11.83;;;7.63;;
16832;SDS011;8533;48.426;10.868;2023-08-12T07:52:19;10.23;;;7.17;;
16832;SDS011;8533;48.426;10.868;2023-08-12T07:54:44;6.60;;;4.80;;
16832;SDS011;8533;48.426;10.868;2023-08-12T07:57:09;6.10;;;4.57;;
16832;SDS011;8533;48.426;10.868;2023-08-12T07:59:34;5.03;;;4.33;;
16832;SDS011;8533;48.426;10.868;2023-08-12T08:02:00;5.10;;;4.60;;
16832;SDS011;8533;48.426;10.868;2023-08-12T08:04:25;6.43;;;4.83;;
16832;SDS011;8533;48.426;10.868;2023-08-12T08:06:50;6.77;;;4.53;;
16832;SDS011;8533;48.426;10.868;2023-08-12T08:09:16;5.53;;;4.80;;
16832;SDS011;8533;48.426;10.868;2023-08-12T08:11:41;6.97;;;4.37;;
16832;SDS011;8533;48.426;10.868;2023-08-12T08:14:06;5.10;;;4.43;;
16832;SDS011;8533;48.426;10.868;2023-08-12T08:16:32;6.80;;;4.33;;
16832;SDS011;8533;48.426;10.868;2023-08-12T08:18:57;5.97;;;4.73;;
16832;SDS011;8533;48.426;10.868;2023-08-12T08:21:22;5.27;;;4.47;;
16832;SDS011;8533;48.426;10.868;2023-08-12T08:23:47;5.73;;;4.80;;
16832;SDS011;8533;48.426;10.868;2023-08-12T08:26:13;5.23;;;4.57;;
16832;SDS011;8533;48.426;10.868;2023-08-12T08:28:40;5.17;;;4.43;;
16832;SDS011;8533;48.426;10.868;2023-08-12T08:31:06;6.63;;;4.63;;
16832;SDS011;8533;48.426;10.868;2023-08-12T08:33:31;8.77;;;4.40;;
16832;SDS011;8533;48.426;10.868;2023-08-12T08:35:56;8.33;;;4.40;;
16832;SDS011;8533;48.426;10.868;2023-08-12T08:38:22;4.87;;;4.07;;
16832;SDS011;8533;48.426;10.868;2023-08-12T08:40:49;6.20;;;4.43;;
16832;SDS011;8533;48.426;10.868;2023-08-12T08:43:15;4.90;;;4.40;;
16832;SDS011;8533;48.426;10.868;2023-08-12T08:45:45;6.93;;;4.23;;
16832;SDS011;8533;48.426;10.868;2023-08-12T08:48:11;4.97;;;4.20;;
16832;SDS011;8533;48.426;10.868;2023-08-12T08:50:37;4.67;;;4.20;;
16832;SDS011;8533;48.426;10.868;2023-08-12T08:53:02;4.83;;;4.30;;
16832;SDS011;8533;48.426;10.868;2023-08-12T08:55:31;5.67;;;4.60;;
16832;SDS011;8533;48.426;10.868;2023-08-12T08:57:56;4.60;;;4.17;;
16832;SDS011;8533;48.426;10.868;2023-08-12T09:00:22;4.60;;;4.13;;
16832;SDS011;8533;48.426;10.868;2023-08-12T09:02:47;7.47;;;4.70;;
16832;SDS011;8533;48.426;10.868;2023-08-12T09:05:15;6.10;;;4.70;;
16832;SDS011;8533;48.426;10.868;2023-08-12T09:07:42;7.57;;;4.43;;
16832;SDS011;8533;48.426;10.868;2023-08-12T09:10:09;8.13;;;5.07;;
16832;SDS011;8533;48.426;10.868;2023-08-12T09:12:35;6.43;;;4.47;;
16832;SDS011;8533;48.426;10.868;2023-08-12T09:15:01;5.20;;;4.50;;
16832;SDS011;8533;48.426;10.868;2023-08-12T09:17:26;5.87;;;4.80;;
16832;SDS011;8533;48.426;10.868;2023-08-12T09:19:52;6.93;;;4.67;;
16832;SDS011;8533;48.426;10.868;2023-08-12T09:22:17;5.73;;;4.27;;
16832;SDS011;8533;48.426;10.868;2023-08-12T09:24:43;6.60;;;4.63;;
16832;SDS011;8533;48.426;10.868;2023-08-12T09:27:08;7.00;;;4.60;;
16832;SDS011;8533;48.426;10.868;2023-08-12T09:29:35;6.47;;;4.60;;
16832;SDS011;8533;48.426;10.868;2023-08-12T09:32:13;5.53;;;4.80;;
16832;SDS011;8533;48.426;10.868;2023-08-12T09:34:50;5.20;;;4.70;;
16832;SDS011;8533;48.426;10.868;2023-08-12T09:37:23;5.00;;;4.50;;
16832;SDS011;8533;48.426;10.868;2023-08-12T09:39:49;4.77;;;4.27;;
16832;SDS011;8533;48.426;10.868;2023-08-12T09:42:16;6.50;;;4.50;;
16832;SDS011;8533;48.426;10.868;2023-08-12T09:44:42;5.10;;;4.43;;
16832;SDS011;8533;48.426;10.868;2023-08-12T09:47:08;5.00;;;4.30;;
16832;SDS011;8533;48.426;10.868;2023-08-12T09:49:34;6.40;;;4.30;;
16832;SDS011;8533;48.426;10.868;2023-08-12T09:52:00;4.23;;;3.83;;
16832;SDS011;8533;48.426;10.868;2023-08-12T09:54:28;4.97;;;4.10;;
16832;SDS011;8533;48.426;10.868;2023-08-12T09:56:54;4.90;;;4.40;;
16832;SDS011;8533;48.426;10.868;2023-08-12T09:59:24;6.13;;;4.23;;
16832;SDS011;8533;48.426;10.868;2023-08-12T10:01:52;4.80;;;4.27;;
16832;SDS011;8533;48.426;10.868;2023-08-12T10:04:18;4.37;;;3.97;;
16832;SDS011;8533;48.426;10.868;2023-08-12T10:06:47;5.77;;;4.47;;
16832;SDS011;8533;48.426;10.868;2023-08-12T10:09:14;5.57;;;4.90;;
16832;SDS011;8533;48.426;10.868;2023-08-12T10:11:41;5.40;;;4.37;;
16832;SDS011;8533;48.426;10.868;2023-08-12T10:14:08;5.50;;;4.30;;
16832;SDS011;8533;48.426;10.868;2023-08-12T10:16:35;5.17;;;4.30;;
16832;SDS011;8533;48.426;10.868;2023-08-12T10:19:02;9.53;;;4.73;;
16832;SDS011;8533;48.426;10.868;2023-08-12T10:21:29;5.13;;;4.60;;
16832;SDS011;8533;48.426;10.868;2023-08-12T10:23:54;5.33;;;4.30;;
16832;SDS011;8533;48.426;10.868;2023-08-12T10:26:25;4.60;;;4.20;;
16832;SDS011;8533;48.426;10.868;2023-08-12T10:28:51;4.90;;;4.40;;
16832;SDS011;8533;48.426;10.868;2023-08-12T10:31:16;5.03;;;4.53;;
16832;SDS011;8533;48.426;10.868;2023-08-12T10:33:44;5.00;;;4.50;;
16832;SDS011;8533;48.426;10.868;2023-08-12T10:36:09;6.23;;;4.50;;
16832;SDS011;8533;48.426;10.868;2023-08-12T10:38:35;7.57;;;4.70;;
16832;SDS011;8533;48.426;10.868;2023-08-12T10:46:29;4.20;;;3.70;;
16832;SDS011;8533;48.426;10.868;2023-08-12T10:48:57;8.53;;;5.83;;
16832;SDS011;8533;48.426;10.868;2023-08-12T10:51:38;5.50;;;4.97;;
16832;SDS011;8533;48.426;10.868;2023-08-12T11:02:17;5.30;;;4.00;;
16832;SDS011;8533;48.426;10.868;2023-08-12T11:07:38;4.30;;;3.90;;
16832;SDS011;8533;48.426;10.868;2023-08-12T11:10:09;4.37;;;3.93;;
16832;SDS011;8533;48.426;10.868;2023-08-12T11:12:39;4.17;;;3.40;;
16832;SDS011;8533;48.426;10.868;2023-08-12T11:15:06;3.30;;;3.00;;
16832;SDS011;8533;48.426;10.868;2023-08-12T11:17:36;3.23;;;2.93;;
16832;SDS011;8533;48.426;10.868;2023-08-12T11:20:04;4.37;;;3.70;;
16832;SDS011;8533;48.426;10.868;2023-08-12T11:22:32;4.33;;;3.50;;
16832;SDS011;8533;48.426;10.868;2023-08-12T11:24:59;4.40;;;3.53;;
16832;SDS011;8533;48.426;10.868;2023-08-12T11:27:25;5.40;;;3.90;;
16832;SDS011;8533;48.426;10.868;2023-08-12T11:29:50;4.10;;;3.63;;
16832;SDS011;8533;48.426;10.868;2023-08-12T11:32:16;4.10;;;3.70;;
16832;SDS011;8533;48.426;10.868;2023-08-12T11:34:43;4.60;;;4.07;;
16832;SDS011;8533;48.426;10.868;2023-08-12T11:37:08;4.73;;;3.97;;
16832;SDS011;8533;48.426;10.868;2023-08-12T11:39:34;4.33;;;3.60;;
16832;SDS011;8533;48.426;10.868;2023-08-12T11:41:59;4.30;;;3.90;;
16832;SDS011;8533;48.426;10.868;2023-08-12T11:44:25;3.80;;;3.50;;
16832;SDS011;8533;48.426;10.868;2023-08-12T11:46:50;4.43;;;3.87;;
16832;SDS011;8533;48.426;10.868;2023-08-12T11:49:15;3.70;;;3.40;;
16832;SDS011;8533;48.426;10.868;2023-08-12T11:51:41;4.70;;;4.00;;
16832;SDS011;8533;48.426;10.868;2023-08-12T11:54:08;4.47;;;3.90;;
16832;SDS011;8533;48.426;10.868;2023-08-12T11:56:33;4.67;;;4.13;;
16832;SDS011;8533;48.426;10.868;2023-08-12T11:58:59;4.23;;;3.83;;
16832;SDS011;8533;48.426;10.868;2023-08-12T12:01:24;4.03;;;3.63;;
16832;SDS011;8533;48.426;10.868;2023-08-12T12:03:50;5.47;;;4.07;;
16832;SDS011;8533;48.426;10.868;2023-08-12T12:06:16;6.43;;;3.50;;
16832;SDS011;8533;48.426;10.868;2023-08-12T12:08:43;4.27;;;3.87;;
16832;SDS011;8533;48.426;10.868;2023-08-12T12:11:09;4.77;;;3.57;;
16832;SDS011;8533;48.426;10.868;2023-08-12T12:13:35;4.10;;;3.63;;
16832;SDS011;8533;48.426;10.868;2023-08-12T12:16:00;4.13;;;3.73;;
16832;SDS011;8533;48.426;10.868;2023-08-12T12:18:26;4.73;;;4.23;;
16832;SDS011;8533;48.426;10.868;2023-08-12T12:20:55;4.30;;;3.87;;
16832;SDS011;8533;48.426;10.868;2023-08-12T12:23:29;6.20;;;3.63;;
16832;SDS011;8533;48.426;10.868;2023-08-12T12:26:01;4.73;;;4.07;;
16832;SDS011;8533;48.426;10.868;2023-08-12T12:28:27;4.87;;;3.80;;
16832;SDS011;8533;48.426;10.868;2023-08-12T12:30:52;6.07;;;4.07;;
16832;SDS011;8533;48.426;10.868;2023-08-12T12:33:18;4.40;;;4.00;;
16832;SDS011;8533;48.426;10.868;2023-08-12T12:35:43;5.17;;;3.83;;
16832;SDS011;8533;48.426;10.868;2023-08-12T12:38:09;4.40;;;4.00;;
16832;SDS011;8533;48.426;10.868;2023-08-12T12:40:34;4.10;;;3.40;;
16832;SDS011;8533;48.426;10.868;2023-08-12T12:42:59;5.37;;;4.07;;
16832;SDS011;8533;48.426;10.868;2023-08-12T12:45:24;6.33;;;3.63;;
16832;SDS011;8533;48.426;10.868;2023-08-12T12:47:50;6.50;;;3.80;;
16832;SDS011;8533;48.426;10.868;2023-08-12T12:50:15;4.30;;;3.60;;
16832;SDS011;8533;48.426;10.868;2023-08-12T12:52:41;4.53;;;3.90;;
16832;SDS011;8533;48.426;10.868;2023-08-12T12:55:07;4.60;;;3.47;;
16832;SDS011;8533;48.426;10.868;2023-08-12T12:57:33;7.23;;;3.70;;
16832;SDS011;8533;48.426;10.868;2023-08-12T12:59:59;4.20;;;3.53;;
16832;SDS011;8533;48.426;10.868;2023-08-12T13:02:25;4.00;;;3.53;;
16832;SDS011;8533;48.426;10.868;2023-08-12T13:04:50;4.50;;;4.03;;
16832;SDS011;8533;48.426;10.868;2023-08-12T13:07:15;4.60;;;3.47;;
16832;SDS011;8533;48.426;10.868;2023-08-12T13:09:41;4.60;;;3.73;;
16832;SDS011;8533;48.426;10.868;2023-08-12T13:12:06;4.40;;;3.60;;
16832;SDS011;8533;48.426;10.868;2023-08-12T13:14:32;4.63;;;3.40;;
16832;SDS011;8533;48.426;10.868;2023-08-12T13:16:57;4.07;;;3.40;;
16832;SDS011;8533;48.426;10.868;2023-08-12T13:19:22;5.33;;;2.87;;
16832;SDS011;8533;48.426;10.868;2023-08-12T13:21:47;7.77;;;3.07;;
16832;SDS011;8533;48.426;10.868;2023-08-12T13:24:13;2.60;;;2.40;;
16832;SDS011;8533;48.426;10.868;2023-08-12T13:26:38;2.60;;;2.33;;
16832;SDS011;8533;48.426;10.868;2023-08-12T13:29:03;5.93;;;2.60;;
16832;SDS011;8533;48.426;10.868;2023-08-12T13:31:29;5.90;;;2.70;;
16832;SDS011;8533;48.426;10.868;2023-08-12T13:33:54;3.00;;;2.60;;
16832;SDS011;8533;48.426;10.868;2023-08-12T13:36:19;4.20;;;2.80;;
16832;SDS011;8533;48.426;10.868;2023-08-12T13:38:45;3.63;;;2.57;;
16832;SDS011;8533;48.426;10.868;2023-08-12T13:41:10;5.53;;;2.60;;
16832;SDS011;8533;48.426;10.868;2023-08-12T13:43:35;2.83;;;2.63;;
16832;SDS011;8533;48.426;10.868;2023-08-12T13:46:01;5.10;;;3.00;;
16832;SDS011;8533;48.426;10.868;2023-08-12T13:48:27;3.43;;;2.77;;
16832;SDS011;8533;48.426;10.868;2023-08-12T13:50:52;3.93;;;2.97;;
16832;SDS011;8533;48.426;10.868;2023-08-12T13:53:18;3.27;;;2.93;;
16832;SDS011;8533;48.426;10.868;2023-08-12T13:55:44;3.40;;;3.10;;
16832;SDS011;8533;48.426;10.868;2023-08-12T13:58:09;3.40;;;3.10;;
16832;SDS011;8533;48.426;10.868;2023-08-12T14:00:36;4.00;;;3.60;;
16832;SDS011;8533;48.426;10.868;2023-08-12T14:03:01;6.67;;;3.60;;
16832;SDS011;8533;48.426;10.868;2023-08-12T14:05:27;4.77;;;3.30;;
16832;SDS011;8533;48.426;10.868;2023-08-12T14:07:52;5.47;;;3.57;;
16832;SDS011;8533;48.426;10.868;2023-08-12T14:10:18;4.93;;;3.80;;
16832;SDS011;8533;48.426;10.868;2023-08-12T14:12:43;5.87;;;3.80;;
16832;SDS011;8533;48.426;10.868;2023-08-12T14:15:09;9.93;;;3.70;;
16832;SDS011;8533;48.426;10.868;2023-08-12T14:17:35;4.47;;;4.07;;
16832;SDS011;8533;48.426;10.868;2023-08-12T14:20:00;6.50;;;4.17;;
16832;SDS011;8533;48.426;10.868;2023-08-12T14:22:26;5.70;;;3.80;;
16832;SDS011;8533;48.426;10.868;2023-08-12T14:24:51;6.10;;;4.40;;
16832;SDS011;8533;48.426;10.868;2023-08-12T14:27:16;4.93;;;4.33;;
16832;SDS011;8533;48.426;10.868;2023-08-12T14:29:43;8.40;;;4.07;;
16832;SDS011;8533;48.426;10.868;2023-08-12T14:32:08;4.73;;;4.17;;
16832;SDS011;8533;48.426;10.868;2023-08-12T14:34:35;4.57;;;3.90;;
16832;SDS011;8533;48.426;10.868;2023-08-12T14:37:01;7.00;;;4.30;;
16832;SDS011;8533;48.426;10.868;2023-08-12T14:39:27;7.43;;;4.10;;
16832;SDS011;8533;48.426;10.868;2023-08-12T14:41:52;9.17;;;4.50;;
16832;SDS011;8533;48.426;10.868;2023-08-12T14:44:18;5.37;;;4.20;;
16832;SDS011;8533;48.426;10.868;2023-08-12T14:46:43;4.60;;;4.17;;
16832;SDS011;8533;48.426;10.868;2023-08-12T14:49:08;4.70;;;3.83;;
16832;SDS011;8533;48.426;10.868;2023-08-12T14:51:34;7.80;;;4.07;;
16832;SDS011;8533;48.426;10.868;2023-08-12T14:53:59;6.87;;;4.13;;
16832;SDS011;8533;48.426;10.868;2023-08-12T14:56:24;8.33;;;4.47;;
16832;SDS011;8533;48.426;10.868;2023-08-12T14:58:50;6.27;;;4.10;;